PWSweather.com
Personal Weather Stations
Station Observations
WAREHAM1
West Wareham, MA 02576

West Wareham, MA 02576

Lat: 41.7961059, Lon: -70.775612

Elevation: 88

Station Type: Davis Vantage Vue

http://www.gateway2capecod.com

High Low Average
Temperature 45.1°F7.3°F 30.6°F-0.8°F 39.1°F3.9°F
Dew Point 41.4°F5.2°F 29.1°F-1.6°F 35.9°F2.2°F
Winds 2.9 mph NE4.7 mph NE Calm Calm 0.6 mph 1.0 mph
Wind Gusts 11.0 mph17.7 mph -- 2.6 mph4.2 mph
Humidity 95% 73% 88%
Pressure 30.43 in1030.50 in 30.06 in1017.90 in -
Precipitation 0.30 in7.60 in - -
Hour Temp Dew Point Humidity Winds Wind Gusts Pressure Precip Precip Rate Daily Precip Total
12:05 AM 45.1°F7.3°C 37.0°F2.8°C 73% Calm Calm -- 30.11 in1019.6 mb 0.00 in0.0 mm 0.00 in0.0 mm 0.00 in0.0 mm
12:15 AM 44.6°F7.0°C 36.9°F2.7°C 74% Calm Calm -- 30.11 in1019.6 mb 0.00 in0.0 mm 0.00 in0.0 mm 0.00 in0.0 mm
12:25 AM 44.1°F6.7°C 36.7°F2.6°C 75% Calm Calm -- 30.11 in1019.6 mb 0.00 in0.0 mm 0.00 in0.0 mm 0.00 in0.0 mm
12:35 AM 43.3°F6.3°C 36.3°F2.4°C 76% Calm Calm -- 30.11 in1019.6 mb 0.00 in0.0 mm 0.00 in0.0 mm 0.00 in0.0 mm
12:45 AM 42.6°F5.9°C 35.6°F2.0°C 76% Calm Calm -- 30.11 in1019.6 mb 0.00 in0.0 mm 0.00 in0.0 mm 0.00 in0.0 mm
12:55 AM 41.9°F5.5°C 35.6°F2.0°C 78% Calm Calm -- 30.09 in1019.0 mb 0.00 in0.0 mm 0.00 in0.0 mm 0.00 in0.0 mm
01:05 AM 41.4°F5.2°C 35.6°F2.0°C 80% Calm Calm 1.0 mph1.6 kmh 30.10 in1019.3 mb 0.00 in0.0 mm 0.00 in0.0 mm 0.00 in0.0 mm
01:15 AM 41.2°F5.1°C 35.8°F2.1°C 81% Calm Calm -- 30.09 in1019.0 mb 0.00 in0.0 mm 0.00 in0.0 mm 0.00 in0.0 mm
01:25 AM 40.8°F4.9°C 35.8°F2.1°C 82% Calm Calm -- 30.10 in1019.3 mb 0.00 in0.0 mm 0.00 in0.0 mm 0.00 in0.0 mm
01:35 AM 40.5°F4.7°C 35.4°F1.9°C 82% Calm Calm -- 30.09 in1019.0 mb 0.00 in0.0 mm 0.00 in0.0 mm 0.00 in0.0 mm
01:45 AM 39.9°F4.4°C 35.2°F1.8°C 83% Calm Calm -- 30.09 in1019.0 mb 0.00 in0.0 mm 0.00 in0.0 mm 0.00 in0.0 mm
01:55 AM 39.6°F4.2°C 35.1°F1.7°C 84% Calm Calm -- 30.08 in1018.6 mb 0.00 in0.0 mm 0.00 in0.0 mm 0.00 in0.0 mm
02:05 AM 39.6°F4.2°C 35.4°F1.9°C 85% Calm Calm -- 30.09 in1019.0 mb 0.00 in0.0 mm 0.00 in0.0 mm 0.00 in0.0 mm
02:15 AM 39.6°F4.2°C 35.4°F1.9°C 85% Calm Calm -- 30.09 in1019.0 mb 0.00 in0.0 mm 0.00 in0.0 mm 0.00 in0.0 mm
02:25 AM 39.2°F4.0°C 35.1°F1.7°C 85% Calm Calm -- 30.08 in1018.6 mb 0.00 in0.0 mm 0.00 in0.0 mm 0.00 in0.0 mm
02:35 AM 38.7°F3.7°C 34.9°F1.6°C 86% Calm Calm -- 30.09 in1019.0 mb 0.00 in0.0 mm 0.00 in0.0 mm 0.00 in0.0 mm
02:45 AM 38.5°F3.6°C 34.7°F1.5°C 86% Calm Calm -- 30.08 in1018.6 mb 0.00 in0.0 mm 0.00 in0.0 mm 0.00 in0.0 mm
02:55 AM 37.9°F3.3°C 34.2°F1.2°C 86% Calm Calm -- 30.08 in1018.6 mb 0.00 in0.0 mm 0.00 in0.0 mm 0.00 in0.0 mm
03:05 AM 37.8°F3.2°C 34.2°F1.2°C 87% Calm Calm -- 30.08 in1018.6 mb 0.00 in0.0 mm 0.00 in0.0 mm 0.00 in0.0 mm
03:15 AM 37.6°F3.1°C 34.3°F1.3°C 88% Calm Calm -- 30.08 in1018.6 mb 0.00 in0.0 mm 0.00 in0.0 mm 0.00 in0.0 mm
03:25 AM 37.6°F3.1°C 34.7°F1.5°C 89% Calm Calm -- 30.08 in1018.6 mb 0.00 in0.0 mm 0.00 in0.0 mm 0.00 in0.0 mm
03:35 AM 37.6°F3.1°C 34.7°F1.5°C 89% Calm Calm 1.0 mph1.6 kmh 30.06 in1017.9 mb 0.00 in0.0 mm 0.00 in0.0 mm 0.00 in0.0 mm
03:45 AM 37.6°F3.1°C 34.7°F1.5°C 89% Calm Calm 2.0 mph3.2 kmh 30.08 in1018.6 mb 0.00 in0.0 mm 0.00 in0.0 mm 0.00 in0.0 mm
03:55 AM 37.6°F3.1°C 34.7°F1.5°C 89% Calm Calm 0.9 mph1.4 kmh 30.08 in1018.6 mb 0.00 in0.0 mm 0.00 in0.0 mm 0.00 in0.0 mm
04:05 AM 37.4°F3.0°C 34.5°F1.4°C 89% Calm Calm -- 30.08 in1018.6 mb 0.00 in0.0 mm 0.00 in0.0 mm 0.00 in0.0 mm
04:15 AM 37.6°F3.1°C 34.7°F1.5°C 89% Calm Calm -- 30.09 in1019.0 mb 0.00 in0.0 mm 0.00 in0.0 mm 0.00 in0.0 mm
04:25 AM 37.8°F3.2°C 34.9°F1.6°C 89% Calm Calm -- 30.09 in1019.0 mb 0.00 in0.0 mm 0.00 in0.0 mm 0.00 in0.0 mm
04:35 AM 37.8°F3.2°C 34.9°F1.6°C 89% Calm Calm -- 30.08 in1018.6 mb 0.00 in0.0 mm 0.00 in0.0 mm 0.00 in0.0 mm
04:45 AM 37.9°F3.3°C 35.2°F1.8°C 90% Calm Calm -- 30.09 in1019.0 mb 0.00 in0.0 mm 0.00 in0.0 mm 0.00 in0.0 mm
04:55 AM 38.1°F3.4°C 35.2°F1.8°C 89% Calm Calm 0.9 mph1.4 kmh 30.10 in1019.3 mb 0.00 in0.0 mm 0.00 in0.0 mm 0.00 in0.0 mm
05:05 AM 37.9°F3.3°C 35.1°F1.7°C 89% Calm Calm -- 30.09 in1019.0 mb 0.00 in0.0 mm 0.00 in0.0 mm 0.00 in0.0 mm
05:15 AM 37.9°F3.3°C 35.1°F1.7°C 89% Calm Calm -- 30.09 in1019.0 mb 0.00 in0.0 mm 0.00 in0.0 mm 0.00 in0.0 mm
05:25 AM 37.9°F3.3°C 35.2°F1.8°C 90% Calm Calm -- 30.09 in1019.0 mb 0.00 in0.0 mm 0.00 in0.0 mm 0.00 in0.0 mm
05:35 AM 37.9°F3.3°C 35.2°F1.8°C 90% Calm Calm -- 30.11 in1019.6 mb 0.00 in0.0 mm 0.00 in0.0 mm 0.00 in0.0 mm
05:45 AM 37.9°F3.3°C 35.2°F1.8°C 90% Calm Calm -- 30.10 in1019.3 mb 0.00 in0.0 mm 0.00 in0.0 mm 0.00 in0.0 mm
05:55 AM 38.3°F3.5°C 35.6°F2.0°C 90% Calm Calm 1.0 mph1.6 kmh 30.10 in1019.3 mb 0.00 in0.0 mm 0.00 in0.0 mm 0.00 in0.0 mm
06:05 AM 38.7°F3.7°C 36.0°F2.2°C 90% Calm Calm 0.9 mph1.4 kmh 30.11 in1019.6 mb 0.00 in0.0 mm 0.00 in0.0 mm 0.00 in0.0 mm
06:15 AM 38.7°F3.7°C 35.8°F2.1°C 89% Calm Calm 0.9 mph1.4 kmh 30.12 in1020.0 mb 0.00 in0.0 mm 0.00 in0.0 mm 0.00 in0.0 mm
06:25 AM 38.7°F3.7°C 35.8°F2.1°C 89% Calm Calm -- 30.13 in1020.3 mb 0.00 in0.0 mm 0.00 in0.0 mm 0.00 in0.0 mm
06:35 AM 38.7°F3.7°C 35.8°F2.1°C 89% Calm Calm 0.9 mph1.4 kmh 30.14 in1020.7 mb 0.00 in0.0 mm 0.00 in0.0 mm 0.00 in0.0 mm
06:45 AM 38.5°F3.6°C 35.6°F2.0°C 89% Calm Calm -- 30.14 in1020.7 mb 0.00 in0.0 mm 0.00 in0.0 mm 0.00 in0.0 mm
06:55 AM 38.7°F3.7°C 36.0°F2.2°C 90% Calm Calm 1.0 mph1.6 kmh 30.15 in1021.0 mb 0.00 in0.0 mm 0.00 in0.0 mm 0.00 in0.0 mm
07:05 AM 38.7°F3.7°C 36.0°F2.2°C 90% Calm Calm 0.9 mph1.4 kmh 30.16 in1021.3 mb 0.00 in0.0 mm 0.00 in0.0 mm 0.00 in0.0 mm
07:15 AM 38.8°F3.8°C 36.1°F2.3°C 90% Calm Calm -- 30.16 in1021.3 mb 0.00 in0.0 mm 0.00 in0.0 mm 0.00 in0.0 mm
07:25 AM 39.2°F4.0°C 36.5°F2.5°C 90% Calm Calm -- 30.17 in1021.7 mb 0.00 in0.0 mm 0.00 in0.0 mm 0.00 in0.0 mm
07:35 AM 39.6°F4.2°C 37.2°F2.9°C 91% Calm Calm 0.9 mph1.4 kmh 30.18 in1022.0 mb 0.00 in0.0 mm 0.00 in0.0 mm 0.00 in0.0 mm
07:45 AM 39.6°F4.2°C 37.2°F2.9°C 91% Calm Calm 1.0 mph1.6 kmh 30.17 in1021.7 mb 0.00 in0.0 mm 0.00 in0.0 mm 0.00 in0.0 mm
07:55 AM 39.7°F4.3°C 37.4°F3.0°C 91% Calm Calm -- 30.18 in1022.0 mb 0.00 in0.0 mm 0.00 in0.0 mm 0.00 in0.0 mm
08:06 AM 39.9°F4.4°C 37.8°F3.2°C 92% Calm Calm 1.0 mph1.6 kmh 30.19 in1022.4 mb 0.00 in0.0 mm 0.00 in0.0 mm 0.00 in0.0 mm
08:16 AM 40.5°F4.7°C 38.7°F3.7°C 93% Calm Calm 1.0 mph1.6 kmh 30.18 in1022.0 mb 0.00 in0.0 mm 0.00 in0.0 mm 0.00 in0.0 mm
08:26 AM 40.6°F4.8°C 38.5°F3.6°C 92% Calm Calm -- 30.18 in1022.0 mb 0.03 in0.8 mm 0.18 in4.6 mm 0.03 in0.8 mm
08:36 AM 40.8°F4.9°C 39.0°F3.9°C 93% Calm Calm -- 30.17 in1021.7 mb 0.04 in1.0 mm 0.06 in1.5 mm 0.04 in1.0 mm
08:46 AM 41.7°F5.4°C 40.1°F4.5°C 94% Calm Calm 1.0 mph1.6 kmh 30.19 in1022.4 mb 0.04 in1.0 mm 0.00 in0.0 mm 0.04 in1.0 mm
08:56 AM 42.3°F5.7°C 40.5°F4.7°C 93% Calm Calm 2.0 mph3.2 kmh 30.19 in1022.4 mb 0.04 in1.0 mm 0.00 in0.0 mm 0.04 in1.0 mm
09:06 AM 42.3°F5.7°C 40.5°F4.7°C 93% 0.9 mph ENE1.4 kmh ENE 3.0 mph4.8 kmh 30.19 in1022.4 mb 0.04 in1.0 mm 0.00 in0.0 mm 0.04 in1.0 mm
09:16 AM 43.2°F6.2°C 41.4°F5.2°C 93% 0.9 mph E1.4 kmh E 4.9 mph7.9 kmh 30.19 in1022.4 mb 0.04 in1.0 mm 0.00 in0.0 mm 0.04 in1.0 mm
09:26 AM 43.0°F6.1°C 40.5°F4.7°C 91% 2.0 mph NE3.2 kmh NE 6.0 mph9.7 kmh 30.20 in1022.7 mb 0.01 in0.3 mm 0.00 in0.0 mm 0.04 in1.0 mm
09:36 AM 43.3°F6.3°C 40.8°F4.9°C 91% 0.9 mph NNW1.4 kmh NNW 6.0 mph9.7 kmh 30.21 in1023.0 mb 0.00 in0.0 mm 0.00 in0.0 mm 0.04 in1.0 mm
09:46 AM 43.3°F6.3°C 40.6°F4.8°C 90% 2.0 mph NW3.2 kmh NW 7.0 mph11.3 kmh 30.21 in1023.0 mb 0.00 in0.0 mm 0.00 in0.0 mm 0.04 in1.0 mm
09:56 AM 43.0°F6.1°C 39.9°F4.4°C 89% 2.0 mph NE3.2 kmh NE 8.9 mph14.3 kmh 30.22 in1023.4 mb 0.00 in0.0 mm 0.00 in0.0 mm 0.04 in1.0 mm
10:06 AM 42.6°F5.9°C 39.6°F4.2°C 89% 2.9 mph NE4.7 kmh NE 6.9 mph11.1 kmh 30.21 in1023.0 mb 0.00 in0.0 mm 0.00 in0.0 mm 0.04 in1.0 mm
10:16 AM 42.6°F5.9°C 39.6°F4.2°C 89% 2.0 mph NE3.2 kmh NE 6.0 mph9.7 kmh 30.22 in1023.4 mb 0.00 in0.0 mm 0.00 in0.0 mm 0.04 in1.0 mm
10:26 AM 43.0°F6.1°C 40.3°F4.6°C 90% 0.9 mph NW1.4 kmh NW 6.9 mph11.1 kmh 30.23 in1023.7 mb 0.00 in0.0 mm 0.00 in0.0 mm 0.04 in1.0 mm
10:36 AM 43.2°F6.2°C 39.9°F4.4°C 88% 2.0 mph ENE3.2 kmh ENE 10.1 mph16.3 kmh 30.23 in1023.7 mb 0.00 in0.0 mm 0.00 in0.0 mm 0.04 in1.0 mm
10:46 AM 43.5°F6.4°C 39.6°F4.2°C 86% 2.9 mph E4.7 kmh E 6.9 mph11.1 kmh 30.23 in1023.7 mb 0.00 in0.0 mm 0.00 in0.0 mm 0.04 in1.0 mm
10:56 AM 44.2°F6.8°C 40.1°F4.5°C 85% 2.0 mph ENE3.2 kmh ENE 6.9 mph11.1 kmh 30.23 in1023.7 mb 0.00 in0.0 mm 0.00 in0.0 mm 0.04 in1.0 mm
11:06 AM 44.2°F6.8°C 38.8°F3.8°C 81% 2.9 mph ESE4.7 kmh ESE 10.1 mph16.3 kmh 30.24 in1024.0 mb 0.00 in0.0 mm 0.00 in0.0 mm 0.04 in1.0 mm
11:16 AM 44.4°F6.9°C 39.0°F3.9°C 81% 2.9 mph NE4.7 kmh NE 9.0 mph14.5 kmh 30.23 in1023.7 mb 0.00 in0.0 mm 0.00 in0.0 mm 0.04 in1.0 mm
11:26 AM 45.0°F7.2°C 38.5°F3.6°C 78% 2.9 mph S4.7 kmh S 8.9 mph14.3 kmh 30.24 in1024.0 mb 0.00 in0.0 mm 0.00 in0.0 mm 0.04 in1.0 mm
11:36 AM 45.0°F7.2°C 39.2°F4.0°C 80% 2.0 mph E3.2 kmh E 8.1 mph13.0 kmh 30.25 in1024.4 mb 0.00 in0.0 mm 0.00 in0.0 mm 0.04 in1.0 mm
11:46 AM 44.6°F7.0°C 38.8°F3.8°C 80% 0.9 mph N1.4 kmh N 4.9 mph7.9 kmh 30.25 in1024.4 mb 0.00 in0.0 mm 0.00 in0.0 mm 0.04 in1.0 mm
11:56 AM 44.4°F6.9°C 38.3°F3.5°C 79% 2.0 mph NE3.2 kmh NE 6.0 mph9.7 kmh 30.25 in1024.4 mb 0.00 in0.0 mm 0.00 in0.0 mm 0.04 in1.0 mm
12:06 PM 44.2°F6.8°C 38.1°F3.4°C 79% 2.0 mph E3.2 kmh E 8.1 mph13.0 kmh 30.25 in1024.4 mb 0.00 in0.0 mm 0.00 in0.0 mm 0.04 in1.0 mm
12:16 PM 44.1°F6.7°C 37.6°F3.1°C 78% 2.0 mph NNE3.2 kmh NNE 4.9 mph7.9 kmh 30.24 in1024.0 mb 0.00 in0.0 mm 0.00 in0.0 mm 0.04 in1.0 mm
12:26 PM 44.1°F6.7°C 37.6°F3.1°C 78% 2.0 mph ENE3.2 kmh ENE 7.0 mph11.3 kmh 30.24 in1024.0 mb 0.00 in0.0 mm 0.00 in0.0 mm 0.04 in1.0 mm
12:36 PM 44.1°F6.7°C 37.4°F3.0°C 77% 2.9 mph ENE4.7 kmh ENE 8.1 mph13.0 kmh 30.24 in1024.0 mb 0.00 in0.0 mm 0.00 in0.0 mm 0.04 in1.0 mm
12:46 PM 43.9°F6.6°C 37.4°F3.0°C 78% 2.9 mph NE4.7 kmh NE 8.1 mph13.0 kmh 30.24 in1024.0 mb 0.00 in0.0 mm 0.00 in0.0 mm 0.04 in1.0 mm
12:56 PM 44.1°F6.7°C 37.9°F3.3°C 79% 2.0 mph NE3.2 kmh NE 11.0 mph17.7 kmh 30.23 in1023.7 mb 0.00 in0.0 mm 0.00 in0.0 mm 0.04 in1.0 mm
01:06 PM 43.5°F6.4°C 37.4°F3.0°C 79% 2.9 mph NNE4.7 kmh NNE 9.0 mph14.5 kmh 30.24 in1024.0 mb 0.00 in0.0 mm 0.00 in0.0 mm 0.04 in1.0 mm
01:16 PM 43.2°F6.2°C 37.0°F2.8°C 79% 2.0 mph NE3.2 kmh NE 6.9 mph11.1 kmh 30.24 in1024.0 mb 0.00 in0.0 mm 0.00 in0.0 mm 0.04 in1.0 mm
01:26 PM 43.0°F6.1°C 37.2°F2.9°C 80% 0.9 mph NE1.4 kmh NE 6.9 mph11.1 kmh 30.24 in1024.0 mb 0.00 in0.0 mm 0.00 in0.0 mm 0.04 in1.0 mm
01:36 PM 42.4°F5.8°C 37.0°F2.8°C 81% 2.0 mph NNW3.2 kmh NNW 4.9 mph7.9 kmh 30.26 in1024.7 mb 0.00 in0.0 mm 0.00 in0.0 mm 0.04 in1.0 mm
01:46 PM 42.3°F5.7°C 36.9°F2.7°C 81% 2.0 mph N3.2 kmh N 6.0 mph9.7 kmh 30.26 in1024.7 mb 0.00 in0.0 mm 0.00 in0.0 mm 0.04 in1.0 mm
01:56 PM 41.7°F5.4°C 36.7°F2.6°C 82% 2.0 mph NE3.2 kmh NE 8.1 mph13.0 kmh 30.27 in1025.1 mb 0.00 in0.0 mm 0.00 in0.0 mm 0.04 in1.0 mm
02:06 PM 41.5°F5.3°C 37.4°F3.0°C 85% 0.9 mph NE1.4 kmh NE 8.1 mph13.0 kmh 30.27 in1025.1 mb 0.00 in0.0 mm 0.00 in0.0 mm 0.04 in1.0 mm
02:16 PM 40.8°F4.9°C 37.0°F2.8°C 86% 0.9 mph ENE1.4 kmh ENE 5.0 mph8.0 kmh 30.28 in1025.4 mb 0.00 in0.0 mm 0.00 in0.0 mm 0.04 in1.0 mm
02:26 PM 40.5°F4.7°C 36.9°F2.7°C 87% 2.0 mph E3.2 kmh E 6.9 mph11.1 kmh 30.27 in1025.1 mb 0.00 in0.0 mm 0.00 in0.0 mm 0.04 in1.0 mm
02:36 PM 40.5°F4.7°C 36.9°F2.7°C 87% 0.9 mph ESE1.4 kmh ESE 6.9 mph11.1 kmh 30.27 in1025.1 mb 0.00 in0.0 mm 0.00 in0.0 mm 0.04 in1.0 mm
02:46 PM 40.3°F4.6°C 37.0°F2.8°C 88% 0.9 mph NNE1.4 kmh NNE 4.9 mph7.9 kmh 30.27 in1025.1 mb 0.00 in0.0 mm 0.00 in0.0 mm 0.04 in1.0 mm
02:56 PM 39.9°F4.4°C 36.9°F2.7°C 89% 0.9 mph ENE1.4 kmh ENE 4.0 mph6.4 kmh 30.28 in1025.4 mb 0.00 in0.0 mm 0.00 in0.0 mm 0.04 in1.0 mm
03:06 PM 39.7°F4.3°C 37.0°F2.8°C 90% 0.9 mph NNW1.4 kmh NNW 6.0 mph9.7 kmh 30.30 in1026.1 mb 0.00 in0.0 mm 0.00 in0.0 mm 0.04 in1.0 mm
03:16 PM 39.7°F4.3°C 37.0°F2.8°C 90% 0.9 mph N1.4 kmh N 4.9 mph7.9 kmh 30.29 in1025.7 mb 0.00 in0.0 mm 0.00 in0.0 mm 0.04 in1.0 mm
03:26 PM 39.7°F4.3°C 37.0°F2.8°C 90% 0.9 mph NW1.4 kmh NW 4.0 mph6.4 kmh 30.31 in1026.4 mb 0.00 in0.0 mm 0.00 in0.0 mm 0.04 in1.0 mm
03:36 PM 39.9°F4.4°C 37.2°F2.9°C 90% Calm Calm 2.0 mph3.2 kmh 30.31 in1026.4 mb 0.00 in0.0 mm 0.00 in0.0 mm 0.04 in1.0 mm
03:46 PM 39.6°F4.2°C 36.5°F2.5°C 89% 0.9 mph NE1.4 kmh NE 5.0 mph8.0 kmh 30.30 in1026.1 mb 0.00 in0.0 mm 0.00 in0.0 mm 0.04 in1.0 mm
03:56 PM 39.7°F4.3°C 37.0°F2.8°C 90% 0.9 mph NNE1.4 kmh NNE 5.0 mph8.0 kmh 30.31 in1026.4 mb 0.00 in0.0 mm 0.00 in0.0 mm 0.04 in1.0 mm
04:06 PM 39.6°F4.2°C 37.2°F2.9°C 91% 0.9 mph WNW1.4 kmh WNW 6.0 mph9.7 kmh 30.31 in1026.4 mb 0.00 in0.0 mm 0.00 in0.0 mm 0.04 in1.0 mm
04:16 PM 39.4°F4.1°C 37.0°F2.8°C 91% Calm Calm 2.0 mph3.2 kmh 30.31 in1026.4 mb 0.00 in0.0 mm 0.00 in0.0 mm 0.04 in1.0 mm
04:26 PM 39.0°F3.9°C 36.9°F2.7°C 92% 0.9 mph ENE1.4 kmh ENE 4.0 mph6.4 kmh 30.31 in1026.4 mb 0.00 in0.0 mm 0.00 in0.0 mm 0.04 in1.0 mm
04:36 PM 39.0°F3.9°C 36.9°F2.7°C 92% Calm Calm 3.0 mph4.8 kmh 30.30 in1026.1 mb 0.00 in0.0 mm 0.00 in0.0 mm 0.04 in1.0 mm
04:46 PM 38.8°F3.8°C 36.5°F2.5°C 91% 0.9 mph E1.4 kmh E 2.9 mph4.7 kmh 30.29 in1025.7 mb 0.00 in0.0 mm 0.00 in0.0 mm 0.04 in1.0 mm
04:56 PM 38.8°F3.8°C 36.5°F2.5°C 91% Calm Calm 2.9 mph4.7 kmh 30.28 in1025.4 mb 0.00 in0.0 mm 0.00 in0.0 mm 0.04 in1.0 mm
05:06 PM 38.8°F3.8°C 36.7°F2.6°C 92% 0.9 mph SSE1.4 kmh SSE 2.0 mph3.2 kmh 30.25 in1024.4 mb 0.01 in0.3 mm 0.01 in0.3 mm 0.05 in1.3 mm
05:16 PM 39.0°F3.9°C 36.9°F2.7°C 92% Calm Calm 0.9 mph1.4 kmh 30.28 in1025.4 mb 0.01 in0.3 mm 0.00 in0.0 mm 0.05 in1.3 mm
05:26 PM 39.0°F3.9°C 36.9°F2.7°C 92% Calm Calm 4.0 mph6.4 kmh 30.30 in1026.1 mb 0.01 in0.3 mm 0.00 in0.0 mm 0.05 in1.3 mm
05:36 PM 38.8°F3.8°C 36.7°F2.6°C 92% Calm Calm 4.0 mph6.4 kmh 30.31 in1026.4 mb 0.01 in0.3 mm 0.00 in0.0 mm 0.05 in1.3 mm
05:46 PM 38.8°F3.8°C 36.7°F2.6°C 92% Calm Calm 3.0 mph4.8 kmh 30.30 in1026.1 mb 0.01 in0.3 mm 0.00 in0.0 mm 0.05 in1.3 mm
05:56 PM 38.5°F3.6°C 36.3°F2.4°C 92% 0.9 mph NW1.4 kmh NW 4.0 mph6.4 kmh 30.31 in1026.4 mb 0.01 in0.3 mm 0.00 in0.0 mm 0.05 in1.3 mm
06:06 PM 38.5°F3.6°C 36.3°F2.4°C 92% 0.9 mph E1.4 kmh E 3.0 mph4.8 kmh 30.32 in1026.8 mb 0.00 in0.0 mm 0.00 in0.0 mm 0.05 in1.3 mm
06:16 PM 38.3°F3.5°C 36.1°F2.3°C 92% 0.9 mph NNE1.4 kmh NNE 4.0 mph6.4 kmh 30.34 in1027.4 mb 0.00 in0.0 mm 0.00 in0.0 mm 0.05 in1.3 mm
06:26 PM 38.1°F3.4°C 36.0°F2.2°C 92% Calm Calm 2.0 mph3.2 kmh 30.34 in1027.4 mb 0.00 in0.0 mm 0.00 in0.0 mm 0.05 in1.3 mm
06:36 PM 37.9°F3.3°C 35.8°F2.1°C 92% 0.9 mph E1.4 kmh E 5.0 mph8.0 kmh 30.32 in1026.8 mb 0.00 in0.0 mm 0.00 in0.0 mm 0.05 in1.3 mm
06:46 PM 37.8°F3.2°C 35.6°F2.0°C 92% Calm Calm 2.9 mph4.7 kmh 30.34 in1027.4 mb 0.00 in0.0 mm 0.00 in0.0 mm 0.05 in1.3 mm
06:56 PM 37.6°F3.1°C 35.4°F1.9°C 92% 0.9 mph ENE1.4 kmh ENE 6.0 mph9.7 kmh 30.34 in1027.4 mb 0.00 in0.0 mm 0.00 in0.0 mm 0.05 in1.3 mm
07:06 PM 37.6°F3.1°C 35.4°F1.9°C 92% 0.9 mph NW1.4 kmh NW 2.9 mph4.7 kmh 30.34 in1027.4 mb 0.00 in0.0 mm 0.00 in0.0 mm 0.05 in1.3 mm
07:16 PM 37.4°F3.0°C 35.2°F1.8°C 92% Calm Calm 2.0 mph3.2 kmh 30.34 in1027.4 mb 0.00 in0.0 mm 0.00 in0.0 mm 0.05 in1.3 mm
07:26 PM 37.2°F2.9°C 35.1°F1.7°C 92% Calm Calm 2.0 mph3.2 kmh 30.34 in1027.4 mb 0.00 in0.0 mm 0.00 in0.0 mm 0.05 in1.3 mm
07:36 PM 37.2°F2.9°C 35.1°F1.7°C 92% Calm Calm 0.9 mph1.4 kmh 30.36 in1028.1 mb 0.00 in0.0 mm 0.00 in0.0 mm 0.05 in1.3 mm
07:46 PM 37.0°F2.8°C 34.9°F1.6°C 92% Calm Calm 2.0 mph3.2 kmh 30.36 in1028.1 mb 0.00 in0.0 mm 0.00 in0.0 mm 0.05 in1.3 mm
07:56 PM 37.0°F2.8°C 34.9°F1.6°C 92% Calm Calm 2.0 mph3.2 kmh 30.37 in1028.4 mb 0.00 in0.0 mm 0.00 in0.0 mm 0.05 in1.3 mm
08:06 PM 36.9°F2.7°C 34.7°F1.5°C 92% Calm Calm 0.9 mph1.4 kmh 30.38 in1028.8 mb 0.00 in0.0 mm 0.00 in0.0 mm 0.05 in1.3 mm
08:16 PM 36.7°F2.6°C 34.5°F1.4°C 92% Calm Calm 1.0 mph1.6 kmh 30.39 in1029.1 mb 0.00 in0.0 mm 0.00 in0.0 mm 0.05 in1.3 mm
08:26 PM 36.3°F2.4°C 34.2°F1.2°C 92% Calm Calm 0.9 mph1.4 kmh 30.39 in1029.1 mb 0.00 in0.0 mm 0.00 in0.0 mm 0.05 in1.3 mm
08:36 PM 36.1°F2.3°C 34.0°F1.1°C 92% Calm Calm -- 30.40 in1029.5 mb 0.00 in0.0 mm 0.00 in0.0 mm 0.05 in1.3 mm
08:46 PM 36.0°F2.2°C 33.8°F1.0°C 92% Calm Calm -- 30.39 in1029.1 mb 0.00 in0.0 mm 0.00 in0.0 mm 0.05 in1.3 mm
08:56 PM 35.4°F1.9°C 33.3°F0.7°C 92% Calm Calm -- 30.39 in1029.1 mb 0.00 in0.0 mm 0.00 in0.0 mm 0.05 in1.3 mm
09:06 PM 34.9°F1.6°C 32.7°F0.4°C 92% Calm Calm -- 30.40 in1029.5 mb 0.00 in0.0 mm 0.00 in0.0 mm 0.05 in1.3 mm
09:16 PM 34.3°F1.3°C 32.2°F0.1°C 92% Calm Calm -- 30.40 in1029.5 mb 0.00 in0.0 mm 0.00 in0.0 mm 0.05 in1.3 mm
09:26 PM 33.8°F1.0°C 32.0°F0.0°C 93% Calm Calm -- 30.40 in1029.5 mb 0.00 in0.0 mm 0.00 in0.0 mm 0.05 in1.3 mm
09:36 PM 33.4°F0.8°C 31.6°F-0.2°C 93% Calm Calm -- 30.40 in1029.5 mb 0.00 in0.0 mm 0.00 in0.0 mm 0.05 in1.3 mm
09:46 PM 33.4°F0.8°C 31.8°F-0.1°C 94% Calm Calm -- 30.41 in1029.8 mb 0.00 in0.0 mm 0.00 in0.0 mm 0.05 in1.3 mm
09:56 PM 33.4°F0.8°C 31.8°F-0.1°C 94% Calm Calm -- 30.41 in1029.8 mb 0.00 in0.0 mm 0.00 in0.0 mm 0.05 in1.3 mm
10:06 PM 33.3°F0.7°C 31.6°F-0.2°C 94% Calm Calm -- 30.41 in1029.8 mb 0.00 in0.0 mm 0.00 in0.0 mm 0.05 in1.3 mm
10:16 PM 32.7°F0.4°C 31.1°F-0.5°C 94% Calm Calm -- 30.41 in1029.8 mb 0.00 in0.0 mm 0.00 in0.0 mm 0.05 in1.3 mm
10:26 PM 32.4°F0.2°C 30.7°F-0.7°C 94% Calm Calm -- 30.41 in1029.8 mb 0.00 in0.0 mm 0.00 in0.0 mm 0.05 in1.3 mm
10:36 PM 32.0°F0.0°C 30.6°F-0.8°C 94% Calm Calm 1.0 mph1.6 kmh 30.42 in1030.1 mb 0.00 in0.0 mm 0.00 in0.0 mm 0.05 in1.3 mm
10:46 PM 31.6°F-0.2°C 30.2°F-1.0°C 94% Calm Calm -- 30.42 in1030.1 mb 0.00 in0.0 mm 0.00 in0.0 mm 0.05 in1.3 mm
10:56 PM 31.3°F-0.4°C 29.8°F-1.2°C 94% Calm Calm -- 30.42 in1030.1 mb 0.00 in0.0 mm 0.00 in0.0 mm 0.05 in1.3 mm
11:06 PM 30.9°F-0.6°C 29.5°F-1.4°C 94% Calm Calm -- 30.42 in1030.1 mb 0.00 in0.0 mm 0.00 in0.0 mm 0.05 in1.3 mm
11:16 PM 30.7°F-0.7°C 29.3°F-1.5°C 94% Calm Calm -- 30.42 in1030.1 mb 0.00 in0.0 mm 0.00 in0.0 mm 0.05 in1.3 mm
11:26 PM 30.6°F-0.8°C 29.1°F-1.6°C 94% Calm Calm -- 30.42 in1030.1 mb 0.00 in0.0 mm 0.00 in0.0 mm 0.05 in1.3 mm
11:36 PM 30.6°F-0.8°C 29.3°F-1.5°C 95% Calm Calm -- 30.43 in1030.5 mb 0.00 in0.0 mm 0.00 in0.0 mm 0.05 in1.3 mm
11:46 PM 30.7°F-0.7°C 29.5°F-1.4°C 95% Calm Calm -- 30.43 in1030.5 mb 0.00 in0.0 mm 0.00 in0.0 mm 0.05 in1.3 mm
11:56 PM 31.1°F-0.5°C 29.8°F-1.2°C 95% Calm Calm -- 30.43 in1030.5 mb 0.00 in0.0 mm 0.00 in0.0 mm 0.05 in1.3 mm